sensor_id;sensor_type;location;lat;lon;timestamp;P1;durP1;ratioP1;P2;durP2;ratioP2
64022;SDS011;50264;52.088;5.296;2022-10-17T00:01:14;10.9;;;5.2;;
64022;SDS011;50264;52.088;5.296;2022-10-17T00:02:13;20.8;;;5.11;;
64022;SDS011;50264;52.088;5.296;2022-10-17T00:03:13;20.8;;;5.11;;
64022;SDS011;50264;52.088;5.296;2022-10-17T00:04:13;15.2;;;6.7;;
64022;SDS011;50264;52.088;5.296;2022-10-17T00:05:13;15.2;;;6.7;;
64022;SDS011;50264;52.088;5.296;2022-10-17T00:08:14;13.1;;;6.5;;
64022;SDS011;50264;52.088;5.296;2022-10-17T00:09:13;13.1;;;6.5;;
64022;SDS011;50264;52.088;5.296;2022-10-17T00:11:16;14.3;;;6.5;;
64022;SDS011;50264;52.088;5.296;2022-10-17T00:13:14;9.71;;;5.7;;
64022;SDS011;50264;52.088;5.296;2022-10-17T00:15:14;19.0;;;5.9;;
64022;SDS011;50264;52.088;5.296;2022-10-17T00:16:14;19.0;;;5.9;;
64022;SDS011;50264;52.088;5.296;2022-10-17T00:18:14;15.1;;;5.6;;
64022;SDS011;50264;52.088;5.296;2022-10-17T00:19:13;12.5;;;5.6;;
64022;SDS011;50264;52.088;5.296;2022-10-17T00:20:14;12.5;;;5.6;;
64022;SDS011;50264;52.088;5.296;2022-10-17T00:21:14;17.91;;;5.0;;
64022;SDS011;50264;52.088;5.296;2022-10-17T00:24:14;10.21;;;4.7;;
64022;SDS011;50264;52.088;5.296;2022-10-17T00:25:13;19.7;;;6.0;;
64022;SDS011;50264;52.088;5.296;2022-10-17T00:26:13;19.7;;;6.0;;
64022;SDS011;50264;52.088;5.296;2022-10-17T00:28:14;12.0;;;5.5;;
64022;SDS011;50264;52.088;5.296;2022-10-17T00:29:13;9.1;;;5.0;;
64022;SDS011;50264;52.088;5.296;2022-10-17T00:32:12;10.6;;;5.0;;
64022;SDS011;50264;52.088;5.296;2022-10-17T00:34:14;12.8;;;4.7;;
64022;SDS011;50264;52.088;5.296;2022-10-17T00:35:14;8.4;;;4.8;;
64022;SDS011;50264;52.088;5.296;2022-10-17T00:36:15;8.4;;;4.8;;
64022;SDS011;50264;52.088;5.296;2022-10-17T00:37:14;8.4;;;4.8;;
64022;SDS011;50264;52.088;5.296;2022-10-17T00:38:14;14.0;;;4.91;;
64022;SDS011;50264;52.088;5.296;2022-10-17T00:39:13;14.0;;;4.91;;
64022;SDS011;50264;52.088;5.296;2022-10-17T00:40:12;10.21;;;5.11;;
64022;SDS011;50264;52.088;5.296;2022-10-17T00:41:13;10.21;;;5.11;;
64022;SDS011;50264;52.088;5.296;2022-10-17T00:43:14;13.1;;;4.8;;
64022;SDS011;50264;52.088;5.296;2022-10-17T00:49:13;11.9;;;4.5;;
64022;SDS011;50264;52.088;5.296;2022-10-17T00:50:13;13.6;;;5.5;;
64022;SDS011;50264;52.088;5.296;2022-10-17T00:51:14;13.6;;;5.5;;
64022;SDS011;50264;52.088;5.296;2022-10-17T00:52:14;10.3;;;4.91;;
64022;SDS011;50264;52.088;5.296;2022-10-17T00:53:13;10.3;;;4.91;;
64022;SDS011;50264;52.088;5.296;2022-10-17T00:56:13;19.5;;;5.6;;
64022;SDS011;50264;52.088;5.296;2022-10-17T00:58:13;7.3;;;4.61;;
64022;SDS011;50264;52.088;5.296;2022-10-17T00:59:14;7.3;;;4.61;;
64022;SDS011;50264;52.088;5.296;2022-10-17T01:00:14;7.3;;;4.61;;
64022;SDS011;50264;52.088;5.296;2022-10-17T01:02:15;11.3;;;4.91;;
64022;SDS011;50264;52.088;5.296;2022-10-17T01:03:14;14.0;;;5.3;;
64022;SDS011;50264;52.088;5.296;2022-10-17T01:04:14;14.0;;;5.3;;
64022;SDS011;50264;52.088;5.296;2022-10-17T01:08:13;19.11;;;5.11;;
64022;SDS011;50264;52.088;5.296;2022-10-17T01:12:15;17.0;;;5.4;;
64022;SDS011;50264;52.088;5.296;2022-10-17T01:14:15;11.4;;;5.2;;
64022;SDS011;50264;52.088;5.296;2022-10-17T01:15:17;15.6;;;5.6;;
64022;SDS011;50264;52.088;5.296;2022-10-17T01:19:24;19.3;;;6.4;;
64022;SDS011;50264;52.088;5.296;2022-10-17T01:20:40;19.3;;;6.4;;
64022;SDS011;50264;52.088;5.296;2022-10-17T01:22:14;23.6;;;6.5;;
64022;SDS011;50264;52.088;5.296;2022-10-17T01:23:21;23.6;;;6.5;;
64022;SDS011;50264;52.088;5.296;2022-10-17T01:25:19;17.41;;;5.9;;
64022;SDS011;50264;52.088;5.296;2022-10-17T01:26:15;20.7;;;6.4;;
64022;SDS011;50264;52.088;5.296;2022-10-17T01:27:35;20.7;;;6.4;;
64022;SDS011;50264;52.088;5.296;2022-10-17T01:29:18;14.2;;;5.11;;
64022;SDS011;50264;52.088;5.296;2022-10-17T01:30:21;11.9;;;5.6;;
64022;SDS011;50264;52.088;5.296;2022-10-17T01:31:13;11.9;;;5.6;;
64022;SDS011;50264;52.088;5.296;2022-10-17T01:33:14;12.3;;;5.9;;
64022;SDS011;50264;52.088;5.296;2022-10-17T01:34:14;15.3;;;6.3;;
64022;SDS011;50264;52.088;5.296;2022-10-17T01:40:15;14.0;;;6.9;;
64022;SDS011;50264;52.088;5.296;2022-10-17T01:43:16;15.1;;;6.4;;
64022;SDS011;50264;52.088;5.296;2022-10-17T01:44:14;10.8;;;6.4;;
64022;SDS011;50264;52.088;5.296;2022-10-17T01:45:15;10.8;;;6.4;;
64022;SDS011;50264;52.088;5.296;2022-10-17T01:47:14;19.5;;;6.3;;
64022;SDS011;50264;52.088;5.296;2022-10-17T01:49:14;13.9;;;5.8;;
64022;SDS011;50264;52.088;5.296;2022-10-17T01:50:15;13.9;;;5.8;;
64022;SDS011;50264;52.088;5.296;2022-10-17T01:52:14;23.9;;;7.1;;
64022;SDS011;50264;52.088;5.296;2022-10-17T01:54:14;24.4;;;6.8;;
64022;SDS011;50264;52.088;5.296;2022-10-17T01:55:15;16.61;;;6.3;;
64022;SDS011;50264;52.088;5.296;2022-10-17T02:00:14;19.91;;;6.5;;
64022;SDS011;50264;52.088;5.296;2022-10-17T02:01:13;15.3;;;8.0;;
64022;SDS011;50264;52.088;5.296;2022-10-17T02:02:13;15.3;;;8.0;;
64022;SDS011;50264;52.088;5.296;2022-10-17T02:03:14;19.0;;;7.2;;
64022;SDS011;50264;52.088;5.296;2022-10-17T02:04:15;19.0;;;7.2;;
64022;SDS011;50264;52.088;5.296;2022-10-17T02:05:14;17.8;;;7.1;;
64022;SDS011;50264;52.088;5.296;2022-10-17T02:08:13;23.6;;;6.8;;
64022;SDS011;50264;52.088;5.296;2022-10-17T02:09:17;23.6;;;6.8;;
64022;SDS011;50264;52.088;5.296;2022-10-17T02:13:15;28.2;;;7.9;;
64022;SDS011;50264;52.088;5.296;2022-10-17T02:14:17;18.5;;;7.6;;
64022;SDS011;50264;52.088;5.296;2022-10-17T02:16:17;15.8;;;9.0;;
64022;SDS011;50264;52.088;5.296;2022-10-17T02:17:16;15.8;;;9.0;;
64022;SDS011;50264;52.088;5.296;2022-10-17T02:18:15;17.3;;;7.8;;
64022;SDS011;50264;52.088;5.296;2022-10-17T02:19:18;17.3;;;7.8;;
64022;SDS011;50264;52.088;5.296;2022-10-17T02:21:14;22.5;;;9.0;;
64022;SDS011;50264;52.088;5.296;2022-10-17T02:22:15;21.6;;;7.4;;
64022;SDS011;50264;52.088;5.296;2022-10-17T02:24:15;14.8;;;6.7;;
64022;SDS011;50264;52.088;5.296;2022-10-17T02:26:14;17.3;;;8.5;;
64022;SDS011;50264;52.088;5.296;2022-10-17T02:27:13;17.3;;;8.5;;
64022;SDS011;50264;52.088;5.296;2022-10-17T02:28:18;13.3;;;9.71;;
64022;SDS011;50264;52.088;5.296;2022-10-17T02:33:15;13.6;;;8.31;;
64022;SDS011;50264;52.088;5.296;2022-10-17T02:36:14;24.2;;;8.2;;
64022;SDS011;50264;52.088;5.296;2022-10-17T02:37:15;21.6;;;8.9;;
64022;SDS011;50264;52.088;5.296;2022-10-17T02:38:13;21.6;;;8.9;;
64022;SDS011;50264;52.088;5.296;2022-10-17T02:40:14;20.2;;;8.31;;
64022;SDS011;50264;52.088;5.296;2022-10-17T02:42:13;13.1;;;7.3;;
64022;SDS011;50264;52.088;5.296;2022-10-17T02:44:13;13.1;;;8.0;;
64022;SDS011;50264;52.088;5.296;2022-10-17T02:45:13;15.5;;;7.8;;
64022;SDS011;50264;52.088;5.296;2022-10-17T02:48:15;12.9;;;9.9;;
64022;SDS011;50264;52.088;5.296;2022-10-17T02:49:15;14.2;;;9.21;;
64022;SDS011;50264;52.088;5.296;2022-10-17T02:50:13;14.2;;;9.21;;
64022;SDS011;50264;52.088;5.296;2022-10-17T02:51:14;14.7;;;10.3;;
64022;SDS011;50264;52.088;5.296;2022-10-17T02:52:14;14.7;;;10.3;;
64022;SDS011;50264;52.088;5.296;2022-10-17T02:56:15;11.2;;;8.71;;
64022;SDS011;50264;52.088;5.296;2022-10-17T02:57:15;11.2;;;8.71;;
64022;SDS011;50264;52.088;5.296;2022-10-17T03:00:14;15.5;;;9.81;;
64022;SDS011;50264;52.088;5.296;2022-10-17T03:02:14;14.5;;;9.0;;
64022;SDS011;50264;52.088;5.296;2022-10-17T03:04:14;15.8;;;10.1;;
64022;SDS011;50264;52.088;5.296;2022-10-17T03:05:15;15.8;;;10.1;;
64022;SDS011;50264;52.088;5.296;2022-10-17T03:07:13;17.0;;;8.81;;
64022;SDS011;50264;52.088;5.296;2022-10-17T03:09:13;19.61;;;8.81;;
64022;SDS011;50264;52.088;5.296;2022-10-17T03:14:14;15.9;;;8.81;;
64022;SDS011;50264;52.088;5.296;2022-10-17T03:20:14;15.0;;;10.4;;
64022;SDS011;50264;52.088;5.296;2022-10-17T03:24:13;13.0;;;9.0;;
64022;SDS011;50264;52.088;5.296;2022-10-17T03:25:13;14.9;;;9.71;;
64022;SDS011;50264;52.088;5.296;2022-10-17T03:27:13;17.0;;;9.0;;
64022;SDS011;50264;52.088;5.296;2022-10-17T03:29:13;15.2;;;9.1;;
64022;SDS011;50264;52.088;5.296;2022-10-17T03:30:14;15.2;;;9.1;;
64022;SDS011;50264;52.088;5.296;2022-10-17T03:32:14;15.2;;;9.1;;
64022;SDS011;50264;52.088;5.296;2022-10-17T03:34:15;15.8;;;11.4;;
64022;SDS011;50264;52.088;5.296;2022-10-17T03:35:14;13.4;;;10.8;;
64022;SDS011;50264;52.088;5.296;2022-10-17T03:38:13;14.6;;;10.0;;
64022;SDS011;50264;52.088;5.296;2022-10-17T03:39:13;14.6;;;10.0;;
64022;SDS011;50264;52.088;5.296;2022-10-17T03:41:14;17.41;;;10.3;;
64022;SDS011;50264;52.088;5.296;2022-10-17T03:42:14;13.8;;;10.4;;
64022;SDS011;50264;52.088;5.296;2022-10-17T03:43:13;13.8;;;10.4;;
64022;SDS011;50264;52.088;5.296;2022-10-17T03:50:14;12.8;;;8.6;;
64022;SDS011;50264;52.088;5.296;2022-10-17T03:51:14;12.8;;;8.6;;
64022;SDS011;50264;52.088;5.296;2022-10-17T03:52:14;24.4;;;10.4;;
64022;SDS011;50264;52.088;5.296;2022-10-17T03:54:14;22.9;;;9.6;;
64022;SDS011;50264;52.088;5.296;2022-10-17T03:58:13;26.9;;;9.81;;
64022;SDS011;50264;52.088;5.296;2022-10-17T04:00:14;18.2;;;9.21;;
64022;SDS011;50264;52.088;5.296;2022-10-17T04:06:13;21.5;;;11.7;;
64022;SDS011;50264;52.088;5.296;2022-10-17T04:07:14;21.1;;;11.0;;
64022;SDS011;50264;52.088;5.296;2022-10-17T04:09:13;14.0;;;9.9;;
64022;SDS011;50264;52.088;5.296;2022-10-17T04:11:14;17.3;;;9.5;;
64022;SDS011;50264;52.088;5.296;2022-10-17T04:12:14;17.3;;;9.5;;
64022;SDS011;50264;52.088;5.296;2022-10-17T04:14:14;16.0;;;10.3;;
64022;SDS011;50264;52.088;5.296;2022-10-17T04:20:14;11.7;;;8.71;;
64022;SDS011;50264;52.088;5.296;2022-10-17T04:22:14;19.8;;;9.81;;
64022;SDS011;50264;52.088;5.296;2022-10-17T04:24:14;14.3;;;9.4;;
64022;SDS011;50264;52.088;5.296;2022-10-17T04:25:13;14.3;;;9.4;;
64022;SDS011;50264;52.088;5.296;2022-10-17T04:27:14;15.5;;;9.4;;
64022;SDS011;50264;52.088;5.296;2022-10-17T04:32:14;13.9;;;9.4;;
64022;SDS011;50264;52.088;5.296;2022-10-17T04:33:13;13.9;;;9.4;;
64022;SDS011;50264;52.088;5.296;2022-10-17T04:38:13;14.3;;;9.71;;
64022;SDS011;50264;52.088;5.296;2022-10-17T04:39:13;14.3;;;9.71;;
64022;SDS011;50264;52.088;5.296;2022-10-17T04:40:13;16.0;;;9.6;;
64022;SDS011;50264;52.088;5.296;2022-10-17T04:42:13;18.61;;;9.5;;
64022;SDS011;50264;52.088;5.296;2022-10-17T04:43:13;18.61;;;9.5;;
64022;SDS011;50264;52.088;5.296;2022-10-17T04:45:14;13.7;;;9.0;;
64022;SDS011;50264;52.088;5.296;2022-10-17T04:46:14;22.9;;;9.71;;
64022;SDS011;50264;52.088;5.296;2022-10-17T04:47:13;22.9;;;9.71;;
64022;SDS011;50264;52.088;5.296;2022-10-17T04:51:13;16.11;;;10.0;;
64022;SDS011;50264;52.088;5.296;2022-10-17T04:53:14;17.7;;;9.5;;
64022;SDS011;50264;52.088;5.296;2022-10-17T04:54:14;17.7;;;9.5;;
64022;SDS011;50264;52.088;5.296;2022-10-17T04:56:14;19.11;;;9.6;;
64022;SDS011;50264;52.088;5.296;2022-10-17T04:58:13;16.3;;;9.4;;
64022;SDS011;50264;52.088;5.296;2022-10-17T05:00:13;12.9;;;9.5;;
64022;SDS011;50264;52.088;5.296;2022-10-17T05:03:13;11.3;;;8.31;;
64022;SDS011;50264;52.088;5.296;2022-10-17T05:04:14;11.3;;;8.31;;
64022;SDS011;50264;52.088;5.296;2022-10-17T05:07:12;19.91;;;9.71;;
64022;SDS011;50264;52.088;5.296;2022-10-17T05:08:13;19.91;;;9.71;;
64022;SDS011;50264;52.088;5.296;2022-10-17T05:10:13;16.11;;;10.1;;
64022;SDS011;50264;52.088;5.296;2022-10-17T05:11:15;16.11;;;10.1;;
64022;SDS011;50264;52.088;5.296;2022-10-17T05:14:14;16.9;;;10.5;;
64022;SDS011;50264;52.088;5.296;2022-10-17T05:15:13;16.9;;;10.5;;
64022;SDS011;50264;52.088;5.296;2022-10-17T05:16:14;18.3;;;10.21;;
64022;SDS011;50264;52.088;5.296;2022-10-17T05:18:14;14.3;;;9.6;;
64022;SDS011;50264;52.088;5.296;2022-10-17T05:20:13;18.2;;;9.71;;
64022;SDS011;50264;52.088;5.296;2022-10-17T05:21:13;18.2;;;9.71;;
64022;SDS011;50264;52.088;5.296;2022-10-17T05:25:14;20.0;;;10.3;;
64022;SDS011;50264;52.088;5.296;2022-10-17T05:28:13;14.0;;;10.1;;
64022;SDS011;50264;52.088;5.296;2022-10-17T05:29:13;14.0;;;10.1;;
64022;SDS011;50264;52.088;5.296;2022-10-17T05:30:13;15.9;;;10.5;;
64022;SDS011;50264;52.088;5.296;2022-10-17T05:32:13;15.6;;;8.9;;
64022;SDS011;50264;52.088;5.296;2022-10-17T05:33:14;15.6;;;8.9;;
64022;SDS011;50264;52.088;5.296;2022-10-17T05:35:14;16.3;;;9.21;;
64022;SDS011;50264;52.088;5.296;2022-10-17T05:39:18;14.7;;;9.0;;
64022;SDS011;50264;52.088;5.296;2022-10-17T05:40:14;14.7;;;9.0;;
64022;SDS011;50264;52.088;5.296;2022-10-17T05:41:14;13.5;;;9.0;;
64022;SDS011;50264;52.088;5.296;2022-10-17T05:44:13;13.4;;;9.1;;
64022;SDS011;50264;52.088;5.296;2022-10-17T05:46:13;13.3;;;8.9;;
64022;SDS011;50264;52.088;5.296;2022-10-17T05:47:13;13.6;;;8.5;;
64022;SDS011;50264;52.088;5.296;2022-10-17T05:48:13;13.6;;;8.5;;
64022;SDS011;50264;52.088;5.296;2022-10-17T05:50:14;11.6;;;8.1;;
64022;SDS011;50264;52.088;5.296;2022-10-17T05:51:13;11.6;;;8.5;;
64022;SDS011;50264;52.088;5.296;2022-10-17T05:52:13;11.6;;;8.5;;
64022;SDS011;50264;52.088;5.296;2022-10-17T05:57:14;14.1;;;9.21;;
64022;SDS011;50264;52.088;5.296;2022-10-17T06:00:14;12.1;;;9.21;;
64022;SDS011;50264;52.088;5.296;2022-10-17T06:03:13;13.4;;;9.0;;
64022;SDS011;50264;52.088;5.296;2022-10-17T06:04:13;17.8;;;9.71;;
64022;SDS011;50264;52.088;5.296;2022-10-17T06:06:14;12.0;;;9.31;;
64022;SDS011;50264;52.088;5.296;2022-10-17T06:12:13;11.6;;;8.5;;
64022;SDS011;50264;52.088;5.296;2022-10-17T06:13:13;11.6;;;8.5;;
64022;SDS011;50264;52.088;5.296;2022-10-17T06:15:14;14.4;;;8.2;;
64022;SDS011;50264;52.088;5.296;2022-10-17T06:16:13;16.7;;;9.21;;
64022;SDS011;50264;52.088;5.296;2022-10-17T06:17:13;16.7;;;9.21;;
64022;SDS011;50264;52.088;5.296;2022-10-17T06:20:13;15.6;;;8.6;;
64022;SDS011;50264;52.088;5.296;2022-10-17T06:22:13;10.5;;;7.9;;
64022;SDS011;50264;52.088;5.296;2022-10-17T06:23:13;11.5;;;8.4;;
64022;SDS011;50264;52.088;5.296;2022-10-17T06:24:13;11.5;;;8.4;;
64022;SDS011;50264;52.088;5.296;2022-10-17T06:25:29;12.9;;;8.9;;
64022;SDS011;50264;52.088;5.296;2022-10-17T06:31:15;15.5;;;8.71;;
64022;SDS011;50264;52.088;5.296;2022-10-17T06:34:28;12.8;;;8.5;;
64022;SDS011;50264;52.088;5.296;2022-10-17T06:36:06;17.91;;;9.1;;
64022;SDS011;50264;52.088;5.296;2022-10-17T06:37:46;13.9;;;8.81;;
64022;SDS011;50264;52.088;5.296;2022-10-17T06:39:23;13.6;;;8.9;;
64022;SDS011;50264;52.088;5.296;2022-10-17T06:42:40;15.4;;;8.9;;
64022;SDS011;50264;52.088;5.296;2022-10-17T06:44:17;13.6;;;9.31;;
64022;SDS011;50264;52.088;5.296;2022-10-17T06:45:52;17.8;;;9.71;;
64022;SDS011;50264;52.088;5.296;2022-10-17T06:49:05;14.9;;;8.81;;
64022;SDS011;50264;52.088;5.296;2022-10-17T06:50:42;15.9;;;9.0;;
64022;SDS011;50264;52.088;5.296;2022-10-17T06:52:18;9.81;;;8.1;;
64022;SDS011;50264;52.088;5.296;2022-10-17T06:53:54;12.9;;;8.1;;
64022;SDS011;50264;52.088;5.296;2022-10-17T06:57:08;15.9;;;9.0;;
64022;SDS011;50264;52.088;5.296;2022-10-17T06:58:47;11.3;;;7.6;;
64022;SDS011;50264;52.088;5.296;2022-10-17T07:00:22;12.1;;;8.0;;
64022;SDS011;50264;52.088;5.296;2022-10-17T07:03:36;14.3;;;8.2;;
64022;SDS011;50264;52.088;5.296;2022-10-17T07:05:13;11.5;;;8.2;;
64022;SDS011;50264;52.088;5.296;2022-10-17T07:06:50;14.7;;;7.4;;
64022;SDS011;50264;52.088;5.296;2022-10-17T07:10:03;12.6;;;9.1;;
64022;SDS011;50264;52.088;5.296;2022-10-17T07:11:40;13.8;;;8.71;;
64022;SDS011;50264;52.088;5.296;2022-10-17T07:13:17;10.21;;;7.7;;
64022;SDS011;50264;52.088;5.296;2022-10-17T07:14:53;12.7;;;7.4;;
64022;SDS011;50264;52.088;5.296;2022-10-17T07:18:06;10.8;;;7.8;;
64022;SDS011;50264;52.088;5.296;2022-10-17T07:19:42;14.5;;;8.71;;
64022;SDS011;50264;52.088;5.296;2022-10-17T07:21:18;14.5;;;8.4;;
64022;SDS011;50264;52.088;5.296;2022-10-17T07:24:32;9.71;;;7.2;;
64022;SDS011;50264;52.088;5.296;2022-10-17T07:26:09;12.2;;;8.1;;
64022;SDS011;50264;52.088;5.296;2022-10-17T07:27:49;10.5;;;7.6;;
64022;SDS011;50264;52.088;5.296;2022-10-17T07:29:27;11.4;;;8.4;;
64022;SDS011;50264;52.088;5.296;2022-10-17T07:32:41;9.31;;;7.4;;
64022;SDS011;50264;52.088;5.296;2022-10-17T07:34:18;14.3;;;8.0;;
64022;SDS011;50264;52.088;5.296;2022-10-17T07:35:56;11.3;;;7.2;;
64022;SDS011;50264;52.088;5.296;2022-10-17T07:39:09;11.6;;;6.8;;
64022;SDS011;50264;52.088;5.296;2022-10-17T07:40:52;8.81;;;7.3;;
64022;SDS011;50264;52.088;5.296;2022-10-17T07:42:29;15.2;;;7.3;;
64022;SDS011;50264;52.088;5.296;2022-10-17T07:44:05;13.9;;;7.7;;
64022;SDS011;50264;52.088;5.296;2022-10-17T07:47:17;11.7;;;6.9;;
64022;SDS011;50264;52.088;5.296;2022-10-17T07:48:53;14.0;;;8.9;;
64022;SDS011;50264;52.088;5.296;2022-10-17T07:50:30;12.9;;;7.2;;
64022;SDS011;50264;52.088;5.296;2022-10-17T07:53:44;9.81;;;7.7;;
64022;SDS011;50264;52.088;5.296;2022-10-17T07:55:20;11.4;;;7.8;;
64022;SDS011;50264;52.088;5.296;2022-10-17T07:56:56;10.1;;;7.2;;
64022;SDS011;50264;52.088;5.296;2022-10-17T08:00:10;14.3;;;7.5;;
64022;SDS011;50264;52.088;5.296;2022-10-17T08:01:47;12.6;;;7.9;;
64022;SDS011;50264;52.088;5.296;2022-10-17T08:03:23;15.7;;;7.9;;
64022;SDS011;50264;52.088;5.296;2022-10-17T08:04:59;13.7;;;8.31;;
64022;SDS011;50264;52.088;5.296;2022-10-17T08:08:12;12.5;;;7.3;;
64022;SDS011;50264;52.088;5.296;2022-10-17T08:09:47;11.2;;;8.0;;
64022;SDS011;50264;52.088;5.296;2022-10-17T08:11:25;14.2;;;8.5;;
64022;SDS011;50264;52.088;5.296;2022-10-17T08:14:38;12.9;;;8.81;;
64022;SDS011;50264;52.088;5.296;2022-10-17T08:16:16;14.0;;;9.4;;
64022;SDS011;50264;52.088;5.296;2022-10-17T08:17:54;13.3;;;8.31;;
64022;SDS011;50264;52.088;5.296;2022-10-17T08:21:07;12.0;;;8.6;;
64022;SDS011;50264;52.088;5.296;2022-10-17T08:22:50;12.0;;;8.6;;
64022;SDS011;50264;52.088;5.296;2022-10-17T08:24:26;9.1;;;7.3;;
64022;SDS011;50264;52.088;5.296;2022-10-17T08:26:03;13.4;;;7.7;;
64022;SDS011;50264;52.088;5.296;2022-10-17T08:29:17;14.5;;;7.8;;
64022;SDS011;50264;52.088;5.296;2022-10-17T08:31:00;11.0;;;7.5;;
64022;SDS011;50264;52.088;5.296;2022-10-17T08:32:37;16.8;;;8.4;;
64022;SDS011;50264;52.088;5.296;2022-10-17T08:34:14;11.8;;;9.5;;
64022;SDS011;50264;52.088;5.296;2022-10-17T08:37:26;14.6;;;8.5;;
64022;SDS011;50264;52.088;5.296;2022-10-17T08:39:02;8.6;;;7.3;;
64022;SDS011;50264;52.088;5.296;2022-10-17T08:40:41;17.2;;;8.71;;
64022;SDS011;50264;52.088;5.296;2022-10-17T08:44:22;12.5;;;9.0;;
64022;SDS011;50264;52.088;5.296;2022-10-17T08:46:10;11.3;;;8.2;;
64022;SDS011;50264;52.088;5.296;2022-10-17T08:47:48;12.2;;;8.0;;
64022;SDS011;50264;52.088;5.296;2022-10-17T08:49:33;14.7;;;8.31;;
64022;SDS011;50264;52.088;5.296;2022-10-17T08:51:16;15.0;;;8.71;;
64022;SDS011;50264;52.088;5.296;2022-10-17T08:54:40;12.2;;;8.4;;
64022;SDS011;50264;52.088;5.296;2022-10-17T08:56:19;13.7;;;9.5;;
64022;SDS011;50264;52.088;5.296;2022-10-17T08:57:58;13.8;;;8.71;;
64022;SDS011;50264;52.088;5.296;2022-10-17T08:59:34;11.3;;;7.7;;
64022;SDS011;50264;52.088;5.296;2022-10-17T09:03:11;11.3;;;7.7;;
64022;SDS011;50264;52.088;5.296;2022-10-17T09:05:37;14.3;;;8.81;;
64022;SDS011;50264;52.088;5.296;2022-10-17T09:07:21;13.2;;;8.31;;
64022;SDS011;50264;52.088;5.296;2022-10-17T09:09:14;17.7;;;9.4;;
64022;SDS011;50264;52.088;5.296;2022-10-17T09:11:05;15.7;;;9.31;;
64022;SDS011;50264;52.088;5.296;2022-10-17T09:12:53;18.91;;;8.81;;
64022;SDS011;50264;52.088;5.296;2022-10-17T09:14:54;10.5;;;7.9;;
64022;SDS011;50264;52.088;5.296;2022-10-17T09:16:58;12.7;;;8.1;;
64022;SDS011;50264;52.088;5.296;2022-10-17T09:18:50;11.0;;;8.2;;
64022;SDS011;50264;52.088;5.296;2022-10-17T09:20:35;13.3;;;7.8;;
64022;SDS011;50264;52.088;5.296;2022-10-17T09:24:00;13.7;;;7.7;;
64022;SDS011;50264;52.088;5.296;2022-10-17T09:25:41;17.41;;;8.2;;
64022;SDS011;50264;52.088;5.296;2022-10-17T09:27:21;13.9;;;9.71;;
64022;SDS011;50264;52.088;5.296;2022-10-17T09:29:01;11.0;;;7.6;;
64022;SDS011;50264;52.088;5.296;2022-10-17T09:32:20;15.2;;;8.0;;
64022;SDS011;50264;52.088;5.296;2022-10-17T09:34:00;16.2;;;8.81;;
64022;SDS011;50264;52.088;5.296;2022-10-17T09:35:37;12.9;;;8.2;;
64022;SDS011;50264;52.088;5.296;2022-10-17T09:37:16;11.7;;;8.1;;
64022;SDS011;50264;52.088;5.296;2022-10-17T09:40:33;10.8;;;7.9;;
64022;SDS011;50264;52.088;5.296;2022-10-17T09:42:11;12.8;;;9.4;;
64022;SDS011;50264;52.088;5.296;2022-10-17T09:43:51;13.0;;;8.6;;
64022;SDS011;50264;52.088;5.296;2022-10-17T09:45:33;12.8;;;8.2;;
64022;SDS011;50264;52.088;5.296;2022-10-17T09:49:04;16.4;;;9.6;;
64022;SDS011;50264;52.088;5.296;2022-10-17T09:50:46;12.3;;;8.31;;
64022;SDS011;50264;52.088;5.296;2022-10-17T09:52:24;11.5;;;8.4;;
64022;SDS011;50264;52.088;5.296;2022-10-17T09:54:07;14.6;;;8.4;;
64022;SDS011;50264;52.088;5.296;2022-10-17T09:55:55;13.2;;;7.9;;
64022;SDS011;50264;52.088;5.296;2022-10-17T09:59:30;8.31;;;7.4;;
64022;SDS011;50264;52.088;5.296;2022-10-17T10:01:15;13.4;;;8.2;;
64022;SDS011;50264;52.088;5.296;2022-10-17T10:03:07;11.6;;;7.7;;
64022;SDS011;50264;52.088;5.296;2022-10-17T10:04:53;10.7;;;7.8;;
64022;SDS011;50264;52.088;5.296;2022-10-17T10:06:33;12.5;;;8.5;;
64022;SDS011;50264;52.088;5.296;2022-10-17T10:09:50;11.3;;;8.4;;
64022;SDS011;50264;52.088;5.296;2022-10-17T10:11:43;9.5;;;7.6;;
64022;SDS011;50264;52.088;5.296;2022-10-17T10:13:21;11.7;;;7.7;;
64022;SDS011;50264;52.088;5.296;2022-10-17T10:15:01;12.4;;;7.8;;
64022;SDS011;50264;52.088;5.296;2022-10-17T10:19:19;11.1;;;8.2;;
64022;SDS011;50264;52.088;5.296;2022-10-17T10:21:05;12.2;;;9.1;;
64022;SDS011;50264;52.088;5.296;2022-10-17T10:24:39;10.6;;;8.9;;
64022;SDS011;50264;52.088;5.296;2022-10-17T10:26:20;10.5;;;8.2;;
64022;SDS011;50264;52.088;5.296;2022-10-17T10:27:59;11.3;;;8.2;;
64022;SDS011;50264;52.088;5.296;2022-10-17T10:29:36;13.6;;;9.0;;
64022;SDS011;50264;52.088;5.296;2022-10-17T10:33:03;9.71;;;7.7;;
64022;SDS011;50264;52.088;5.296;2022-10-17T10:34:43;10.4;;;7.4;;
64022;SDS011;50264;52.088;5.296;2022-10-17T10:36:40;10.0;;;7.2;;
64022;SDS011;50264;52.088;5.296;2022-10-17T10:38:34;8.6;;;7.4;;
64022;SDS011;50264;52.088;5.296;2022-10-17T10:40:18;9.1;;;7.8;;
64022;SDS011;50264;52.088;5.296;2022-10-17T10:41:58;10.7;;;8.1;;
64022;SDS011;50264;52.088;5.296;2022-10-17T10:45:18;11.9;;;8.1;;
64022;SDS011;50264;52.088;5.296;2022-10-17T10:47:06;13.3;;;8.4;;
64022;SDS011;50264;52.088;5.296;2022-10-17T10:48:52;11.3;;;7.3;;
64022;SDS011;50264;52.088;5.296;2022-10-17T10:50:31;9.9;;;8.6;;
64022;SDS011;50264;52.088;5.296;2022-10-17T10:54:07;14.2;;;8.71;;
64022;SDS011;50264;52.088;5.296;2022-10-17T10:55:53;9.4;;;7.9;;
64022;SDS011;50264;52.088;5.296;2022-10-17T10:57:34;9.1;;;7.7;;
64022;SDS011;50264;52.088;5.296;2022-10-17T10:59:14;9.71;;;8.71;;
64022;SDS011;50264;52.088;5.296;2022-10-17T11:00:55;11.2;;;8.4;;
64022;SDS011;50264;52.088;5.296;2022-10-17T11:04:26;8.0;;;7.2;;
64022;SDS011;50264;52.088;5.296;2022-10-17T11:06:10;10.5;;;8.31;;
64022;SDS011;50264;52.088;5.296;2022-10-17T11:07:52;8.81;;;7.7;;
64022;SDS011;50264;52.088;5.296;2022-10-17T11:09:48;13.2;;;8.81;;
64022;SDS011;50264;52.088;5.296;2022-10-17T11:11:33;12.5;;;8.9;;
64022;SDS011;50264;52.088;5.296;2022-10-17T11:13:14;9.5;;;7.5;;
64022;SDS011;50264;52.088;5.296;2022-10-17T11:16:43;13.5;;;8.81;;
64022;SDS011;50264;52.088;5.296;2022-10-17T11:18:25;8.71;;;7.4;;
64022;SDS011;50264;52.088;5.296;2022-10-17T11:20:10;10.5;;;8.31;;
64022;SDS011;50264;52.088;5.296;2022-10-17T11:21:59;8.81;;;7.9;;
64022;SDS011;50264;52.088;5.296;2022-10-17T11:23:45;8.9;;;7.8;;
64022;SDS011;50264;52.088;5.296;2022-10-17T11:27:09;11.6;;;7.5;;
64022;SDS011;50264;52.088;5.296;2022-10-17T11:28:45;15.5;;;8.31;;
64022;SDS011;50264;52.088;5.296;2022-10-17T11:30:22;13.4;;;8.2;;
64022;SDS011;50264;52.088;5.296;2022-10-17T11:33:44;11.5;;;7.8;;
64022;SDS011;50264;52.088;5.296;2022-10-17T11:35:27;9.81;;;7.7;;
64022;SDS011;50264;52.088;5.296;2022-10-17T11:37:11;9.6;;;7.8;;
64022;SDS011;50264;52.088;5.296;2022-10-17T11:38:54;8.71;;;7.8;;
64022;SDS011;50264;52.088;5.296;2022-10-17T11:40:34;11.6;;;8.2;;
64022;SDS011;50264;52.088;5.296;2022-10-17T11:43:56;9.71;;;7.8;;
64022;SDS011;50264;52.088;5.296;2022-10-17T11:45:39;8.9;;;7.5;;
64022;SDS011;50264;52.088;5.296;2022-10-17T11:47:23;13.9;;;9.31;;
64022;SDS011;50264;52.088;5.296;2022-10-17T11:49:09;9.31;;;7.6;;
64022;SDS011;50264;52.088;5.296;2022-10-17T11:52:40;9.6;;;7.4;;
64022;SDS011;50264;52.088;5.296;2022-10-17T11:54:21;9.9;;;8.6;;
64022;SDS011;50264;52.088;5.296;2022-10-17T11:56:04;10.7;;;8.1;;
64022;SDS011;50264;52.088;5.296;2022-10-17T11:57:44;10.5;;;7.6;;
64022;SDS011;50264;52.088;5.296;2022-10-17T11:59:44;9.4;;;8.2;;
64022;SDS011;50264;52.088;5.296;2022-10-17T12:01:36;9.71;;;7.6;;
64022;SDS011;50264;52.088;5.296;2022-10-17T12:05:14;11.8;;;7.9;;
64022;SDS011;50264;52.088;5.296;2022-10-17T12:07:04;10.6;;;8.1;;
64022;SDS011;50264;52.088;5.296;2022-10-17T12:08:51;10.21;;;8.9;;
64022;SDS011;50264;52.088;5.296;2022-10-17T12:10:38;12.8;;;10.0;;
64022;SDS011;50264;52.088;5.296;2022-10-17T12:12:22;10.1;;;9.1;;
64022;SDS011;50264;52.088;5.296;2022-10-17T12:14:01;9.6;;;8.31;;
64022;SDS011;50264;52.088;5.296;2022-10-17T12:17:23;11.3;;;8.5;;